sensor_id;sensor_type;location;lat;lon;timestamp;temperature;humidity
49731;DHT22;35622;52.008;5.426;2024-01-30T00:01:40;10.60;94.00
49731;DHT22;35622;52.008;5.426;2024-01-30T00:04:05;10.50;94.10
49731;DHT22;35622;52.008;5.426;2024-01-30T00:06:31;10.50;94.20
49731;DHT22;35622;52.008;5.426;2024-01-30T00:08:57;10.60;94.00
49731;DHT22;35622;52.008;5.426;2024-01-30T00:11:22;10.50;93.90
49731;DHT22;35622;52.008;5.426;2024-01-30T00:13:51;10.40;94.00
49731;DHT22;35622;52.008;5.426;2024-01-30T00:16:23;10.40;94.10
49731;DHT22;35622;52.008;5.426;2024-01-30T00:18:50;10.40;94.30
49731;DHT22;35622;52.008;5.426;2024-01-30T00:21:17;10.40;94.20
49731;DHT22;35622;52.008;5.426;2024-01-30T00:23:42;10.40;94.10
49731;DHT22;35622;52.008;5.426;2024-01-30T00:26:08;10.50;93.80
49731;DHT22;35622;52.008;5.426;2024-01-30T00:28:33;10.40;93.90
49731;DHT22;35622;52.008;5.426;2024-01-30T00:30:59;10.40;93.80
49731;DHT22;35622;52.008;5.426;2024-01-30T00:33:24;10.30;93.70
49731;DHT22;35622;52.008;5.426;2024-01-30T00:35:50;10.20;93.90
49731;DHT22;35622;52.008;5.426;2024-01-30T00:38:15;10.20;94.10
49731;DHT22;35622;52.008;5.426;2024-01-30T00:40:41;10.30;93.90
49731;DHT22;35622;52.008;5.426;2024-01-30T00:43:07;10.20;94.00
49731;DHT22;35622;52.008;5.426;2024-01-30T00:45:32;10.20;94.10
49731;DHT22;35622;52.008;5.426;2024-01-30T00:47:58;10.10;94.10
49731;DHT22;35622;52.008;5.426;2024-01-30T00:50:23;10.10;94.20
49731;DHT22;35622;52.008;5.426;2024-01-30T00:52:49;10.10;93.70
49731;DHT22;35622;52.008;5.426;2024-01-30T00:55:14;10.10;93.90
49731;DHT22;35622;52.008;5.426;2024-01-30T00:57:40;10.00;94.10
49731;DHT22;35622;52.008;5.426;2024-01-30T01:00:07;10.00;94.20
49731;DHT22;35622;52.008;5.426;2024-01-30T01:02:34;10.10;94.80
49731;DHT22;35622;52.008;5.426;2024-01-30T01:05:00;10.10;94.40
49731;DHT22;35622;52.008;5.426;2024-01-30T01:07:26;10.00;94.30
49731;DHT22;35622;52.008;5.426;2024-01-30T01:09:51;9.90;94.40
49731;DHT22;35622;52.008;5.426;2024-01-30T01:12:17;9.90;94.60
49731;DHT22;35622;52.008;5.426;2024-01-30T01:14:43;9.90;94.40
49731;DHT22;35622;52.008;5.426;2024-01-30T01:17:08;9.90;94.40
49731;DHT22;35622;52.008;5.426;2024-01-30T01:19:34;9.90;94.30
49731;DHT22;35622;52.008;5.426;2024-01-30T01:22:00;10.00;94.40
49731;DHT22;35622;52.008;5.426;2024-01-30T01:24:25;10.00;94.40
49731;DHT22;35622;52.008;5.426;2024-01-30T01:26:51;9.90;94.30
49731;DHT22;35622;52.008;5.426;2024-01-30T01:29:16;9.90;94.50
49731;DHT22;35622;52.008;5.426;2024-01-30T01:31:42;10.00;94.60
49731;DHT22;35622;52.008;5.426;2024-01-30T01:34:11;9.90;94.50
49731;DHT22;35622;52.008;5.426;2024-01-30T01:36:37;9.90;94.90
49731;DHT22;35622;52.008;5.426;2024-01-30T01:39:03;9.90;94.30
49731;DHT22;35622;52.008;5.426;2024-01-30T01:41:32;9.80;95.10
49731;DHT22;35622;52.008;5.426;2024-01-30T01:43:59;9.70;94.50
49731;DHT22;35622;52.008;5.426;2024-01-30T01:46:27;9.70;94.70
49731;DHT22;35622;52.008;5.426;2024-01-30T01:48:54;9.70;94.80
49731;DHT22;35622;52.008;5.426;2024-01-30T01:51:21;9.60;94.80
49731;DHT22;35622;52.008;5.426;2024-01-30T01:53:47;9.70;95.00
49731;DHT22;35622;52.008;5.426;2024-01-30T01:56:13;9.60;95.20
49731;DHT22;35622;52.008;5.426;2024-01-30T01:58:39;9.60;95.10
49731;DHT22;35622;52.008;5.426;2024-01-30T02:01:05;9.70;95.20
49731;DHT22;35622;52.008;5.426;2024-01-30T02:03:31;9.70;95.30
49731;DHT22;35622;52.008;5.426;2024-01-30T02:05:57;9.70;95.10
49731;DHT22;35622;52.008;5.426;2024-01-30T02:08:24;9.70;95.10
49731;DHT22;35622;52.008;5.426;2024-01-30T02:10:50;9.70;95.10
49731;DHT22;35622;52.008;5.426;2024-01-30T02:13:15;9.80;95.20
49731;DHT22;35622;52.008;5.426;2024-01-30T02:15:41;9.80;95.10
49731;DHT22;35622;52.008;5.426;2024-01-30T02:18:06;9.80;95.00
49731;DHT22;35622;52.008;5.426;2024-01-30T02:20:35;9.80;95.10
49731;DHT22;35622;52.008;5.426;2024-01-30T02:23:01;9.80;95.10
49731;DHT22;35622;52.008;5.426;2024-01-30T02:25:38;9.80;95.10
49731;DHT22;35622;52.008;5.426;2024-01-30T02:28:04;9.80;95.20
49731;DHT22;35622;52.008;5.426;2024-01-30T02:30:29;9.70;95.10
49731;DHT22;35622;52.008;5.426;2024-01-30T02:32:55;9.70;95.20
49731;DHT22;35622;52.008;5.426;2024-01-30T02:35:20;9.80;95.20
49731;DHT22;35622;52.008;5.426;2024-01-30T02:37:46;9.80;95.30
49731;DHT22;35622;52.008;5.426;2024-01-30T02:40:11;9.80;95.20
49731;DHT22;35622;52.008;5.426;2024-01-30T02:42:37;9.80;95.00
49731;DHT22;35622;52.008;5.426;2024-01-30T02:45:03;9.80;95.10
49731;DHT22;35622;52.008;5.426;2024-01-30T02:47:28;9.80;95.10
49731;DHT22;35622;52.008;5.426;2024-01-30T02:49:54;9.80;95.30
49731;DHT22;35622;52.008;5.426;2024-01-30T02:52:20;9.90;94.80
49731;DHT22;35622;52.008;5.426;2024-01-30T02:54:45;9.80;94.80
49731;DHT22;35622;52.008;5.426;2024-01-30T02:57:11;9.80;94.90
49731;DHT22;35622;52.008;5.426;2024-01-30T02:59:36;9.70;95.10
49731;DHT22;35622;52.008;5.426;2024-01-30T03:02:02;9.80;95.20
49731;DHT22;35622;52.008;5.426;2024-01-30T03:04:27;9.80;95.00
49731;DHT22;35622;52.008;5.426;2024-01-30T03:06:55;9.80;95.20
49731;DHT22;35622;52.008;5.426;2024-01-30T03:09:20;9.80;95.20
49731;DHT22;35622;52.008;5.426;2024-01-30T03:11:46;9.70;95.10
49731;DHT22;35622;52.008;5.426;2024-01-30T03:14:12;9.70;95.10
49731;DHT22;35622;52.008;5.426;2024-01-30T03:16:37;9.70;95.10
49731;DHT22;35622;52.008;5.426;2024-01-30T03:19:04;9.70;95.60
49731;DHT22;35622;52.008;5.426;2024-01-30T03:21:30;9.70;95.80
49731;DHT22;35622;52.008;5.426;2024-01-30T03:23:56;9.70;95.70
49731;DHT22;35622;52.008;5.426;2024-01-30T03:26:21;9.80;95.80
49731;DHT22;35622;52.008;5.426;2024-01-30T03:28:47;9.70;95.90
49731;DHT22;35622;52.008;5.426;2024-01-30T03:31:15;9.80;96.30
49731;DHT22;35622;52.008;5.426;2024-01-30T03:33:41;9.90;95.90
49731;DHT22;35622;52.008;5.426;2024-01-30T03:36:07;9.90;95.70
49731;DHT22;35622;52.008;5.426;2024-01-30T03:38:33;9.90;95.50
49731;DHT22;35622;52.008;5.426;2024-01-30T03:40:59;9.90;95.90
49731;DHT22;35622;52.008;5.426;2024-01-30T03:43:25;9.90;96.00
49731;DHT22;35622;52.008;5.426;2024-01-30T03:45:50;10.00;95.90
49731;DHT22;35622;52.008;5.426;2024-01-30T03:48:16;10.00;95.70
49731;DHT22;35622;52.008;5.426;2024-01-30T03:50:41;10.00;95.60
49731;DHT22;35622;52.008;5.426;2024-01-30T03:53:07;10.10;95.60
49731;DHT22;35622;52.008;5.426;2024-01-30T03:55:33;10.20;95.60
49731;DHT22;35622;52.008;5.426;2024-01-30T03:57:58;10.20;95.70
49731;DHT22;35622;52.008;5.426;2024-01-30T04:00:24;10.20;95.80
49731;DHT22;35622;52.008;5.426;2024-01-30T04:02:49;10.20;95.80
49731;DHT22;35622;52.008;5.426;2024-01-30T04:05:16;10.30;96.00
49731;DHT22;35622;52.008;5.426;2024-01-30T04:07:42;10.40;95.80
49731;DHT22;35622;52.008;5.426;2024-01-30T04:10:09;10.30;95.70
49731;DHT22;35622;52.008;5.426;2024-01-30T04:12:35;10.30;95.90
49731;DHT22;35622;52.008;5.426;2024-01-30T04:15:01;10.30;96.00
49731;DHT22;35622;52.008;5.426;2024-01-30T04:17:27;10.30;96.20
49731;DHT22;35622;52.008;5.426;2024-01-30T04:19:54;10.40;96.70
49731;DHT22;35622;52.008;5.426;2024-01-30T04:22:20;10.40;96.20
49731;DHT22;35622;52.008;5.426;2024-01-30T04:24:46;10.50;96.10
49731;DHT22;35622;52.008;5.426;2024-01-30T04:27:11;10.40;96.20
49731;DHT22;35622;52.008;5.426;2024-01-30T04:29:37;10.50;96.30
49731;DHT22;35622;52.008;5.426;2024-01-30T04:32:02;10.50;96.30
49731;DHT22;35622;52.008;5.426;2024-01-30T04:34:28;10.60;96.20
49731;DHT22;35622;52.008;5.426;2024-01-30T04:36:54;10.60;96.20
49731;DHT22;35622;52.008;5.426;2024-01-30T04:39:20;10.60;96.00
49731;DHT22;35622;52.008;5.426;2024-01-30T04:41:45;10.60;96.20
49731;DHT22;35622;52.008;5.426;2024-01-30T04:44:11;10.60;96.20
49731;DHT22;35622;52.008;5.426;2024-01-30T04:46:37;10.60;96.40
49731;DHT22;35622;52.008;5.426;2024-01-30T04:49:02;10.70;96.30
49731;DHT22;35622;52.008;5.426;2024-01-30T04:51:28;10.70;96.40
49731;DHT22;35622;52.008;5.426;2024-01-30T04:53:55;10.70;96.20
49731;DHT22;35622;52.008;5.426;2024-01-30T04:56:21;10.70;96.20
49731;DHT22;35622;52.008;5.426;2024-01-30T04:58:46;10.80;96.20
49731;DHT22;35622;52.008;5.426;2024-01-30T05:01:18;10.80;96.30
49731;DHT22;35622;52.008;5.426;2024-01-30T05:03:44;10.90;96.00
49731;DHT22;35622;52.008;5.426;2024-01-30T05:06:10;10.80;95.90
49731;DHT22;35622;52.008;5.426;2024-01-30T05:08:35;10.80;96.20
49731;DHT22;35622;52.008;5.426;2024-01-30T05:11:05;10.80;96.50
49731;DHT22;35622;52.008;5.426;2024-01-30T05:13:31;10.90;96.50
49731;DHT22;35622;52.008;5.426;2024-01-30T05:15:57;10.90;96.60
49731;DHT22;35622;52.008;5.426;2024-01-30T05:18:23;11.10;96.20
49731;DHT22;35622;52.008;5.426;2024-01-30T05:20:50;11.00;96.20
49731;DHT22;35622;52.008;5.426;2024-01-30T05:23:15;11.00;96.20
49731;DHT22;35622;52.008;5.426;2024-01-30T05:25:41;11.10;96.20
49731;DHT22;35622;52.008;5.426;2024-01-30T05:28:07;11.10;96.00
49731;DHT22;35622;52.008;5.426;2024-01-30T05:30:32;11.10;96.10
49731;DHT22;35622;52.008;5.426;2024-01-30T05:32:58;11.10;96.10
49731;DHT22;35622;52.008;5.426;2024-01-30T05:35:24;11.20;96.30
49731;DHT22;35622;52.008;5.426;2024-01-30T05:37:49;11.10;96.10
49731;DHT22;35622;52.008;5.426;2024-01-30T05:40:15;11.20;96.10
49731;DHT22;35622;52.008;5.426;2024-01-30T05:42:42;11.30;96.00
49731;DHT22;35622;52.008;5.426;2024-01-30T05:45:07;11.30;95.70
49731;DHT22;35622;52.008;5.426;2024-01-30T05:47:34;11.20;96.00
49731;DHT22;35622;52.008;5.426;2024-01-30T05:50:00;11.20;96.10
49731;DHT22;35622;52.008;5.426;2024-01-30T05:52:25;11.20;96.00
49731;DHT22;35622;52.008;5.426;2024-01-30T05:54:51;11.30;96.20
49731;DHT22;35622;52.008;5.426;2024-01-30T05:57:16;11.30;96.30
49731;DHT22;35622;52.008;5.426;2024-01-30T05:59:44;11.30;96.20
49731;DHT22;35622;52.008;5.426;2024-01-30T06:02:13;11.30;96.30
49731;DHT22;35622;52.008;5.426;2024-01-30T06:04:39;11.30;96.20
49731;DHT22;35622;52.008;5.426;2024-01-30T06:07:04;11.30;96.20
49731;DHT22;35622;52.008;5.426;2024-01-30T06:09:31;11.40;96.30
49731;DHT22;35622;52.008;5.426;2024-01-30T06:11:57;11.40;96.30
49731;DHT22;35622;52.008;5.426;2024-01-30T06:14:23;11.40;96.20
49731;DHT22;35622;52.008;5.426;2024-01-30T06:16:49;11.40;96.20
49731;DHT22;35622;52.008;5.426;2024-01-30T06:19:14;11.50;96.40
49731;DHT22;35622;52.008;5.426;2024-01-30T06:21:40;11.50;96.10
49731;DHT22;35622;52.008;5.426;2024-01-30T06:24:06;11.60;96.00
49731;DHT22;35622;52.008;5.426;2024-01-30T06:26:31;11.60;96.00
49731;DHT22;35622;52.008;5.426;2024-01-30T06:28:57;11.60;95.90
49731;DHT22;35622;52.008;5.426;2024-01-30T06:31:22;11.50;96.00
49731;DHT22;35622;52.008;5.426;2024-01-30T06:33:49;11.60;96.40
49731;DHT22;35622;52.008;5.426;2024-01-30T06:36:14;11.60;95.90
49731;DHT22;35622;52.008;5.426;2024-01-30T06:38:40;11.50;96.20
49731;DHT22;35622;52.008;5.426;2024-01-30T06:41:06;11.40;96.30
49731;DHT22;35622;52.008;5.426;2024-01-30T06:43:32;11.50;96.30
49731;DHT22;35622;52.008;5.426;2024-01-30T06:45:57;11.50;96.40
49731;DHT22;35622;52.008;5.426;2024-01-30T06:48:23;11.50;96.20
49731;DHT22;35622;52.008;5.426;2024-01-30T06:50:49;11.50;96.20
49731;DHT22;35622;52.008;5.426;2024-01-30T06:53:14;11.60;96.20
49731;DHT22;35622;52.008;5.426;2024-01-30T06:55:40;11.60;96.20
49731;DHT22;35622;52.008;5.426;2024-01-30T06:58:06;11.70;96.00
49731;DHT22;35622;52.008;5.426;2024-01-30T07:00:32;11.70;96.00
49731;DHT22;35622;52.008;5.426;2024-01-30T07:02:57;11.60;96.00
49731;DHT22;35622;52.008;5.426;2024-01-30T07:05:23;11.70;96.00
49731;DHT22;35622;52.008;5.426;2024-01-30T07:07:48;11.60;95.90
49731;DHT22;35622;52.008;5.426;2024-01-30T07:10:14;11.60;96.00
49731;DHT22;35622;52.008;5.426;2024-01-30T07:12:40;11.70;95.90
49731;DHT22;35622;52.008;5.426;2024-01-30T07:15:05;11.70;95.90
49731;DHT22;35622;52.008;5.426;2024-01-30T07:17:34;11.80;95.80
49731;DHT22;35622;52.008;5.426;2024-01-30T07:20:00;11.80;95.70
49731;DHT22;35622;52.008;5.426;2024-01-30T07:22:26;11.70;95.70
49731;DHT22;35622;52.008;5.426;2024-01-30T07:24:51;11.60;95.90
49731;DHT22;35622;52.008;5.426;2024-01-30T07:27:17;11.70;96.10
49731;DHT22;35622;52.008;5.426;2024-01-30T07:29:43;11.60;96.10
49731;DHT22;35622;52.008;5.426;2024-01-30T07:32:09;11.70;96.10
49731;DHT22;35622;52.008;5.426;2024-01-30T07:34:34;11.70;96.20
49731;DHT22;35622;52.008;5.426;2024-01-30T07:37:01;11.70;96.20
49731;DHT22;35622;52.008;5.426;2024-01-30T07:39:28;11.70;96.30
49731;DHT22;35622;52.008;5.426;2024-01-30T07:41:53;11.70;96.20
49731;DHT22;35622;52.008;5.426;2024-01-30T07:44:20;11.80;96.20
49731;DHT22;35622;52.008;5.426;2024-01-30T07:46:46;11.90;96.10
49731;DHT22;35622;52.008;5.426;2024-01-30T07:49:12;11.80;95.90
49731;DHT22;35622;52.008;5.426;2024-01-30T07:51:39;11.90;96.10
49731;DHT22;35622;52.008;5.426;2024-01-30T07:54:11;11.90;96.20
49731;DHT22;35622;52.008;5.426;2024-01-30T07:56:36;11.90;96.20
49731;DHT22;35622;52.008;5.426;2024-01-30T07:59:02;12.00;96.10
49731;DHT22;35622;52.008;5.426;2024-01-30T08:01:28;12.00;96.20
49731;DHT22;35622;52.008;5.426;2024-01-30T08:03:53;12.10;96.30
49731;DHT22;35622;52.008;5.426;2024-01-30T08:06:19;12.10;96.30
49731;DHT22;35622;52.008;5.426;2024-01-30T08:08:45;12.20;96.30
49731;DHT22;35622;52.008;5.426;2024-01-30T08:11:10;12.20;96.20
49731;DHT22;35622;52.008;5.426;2024-01-30T08:13:36;12.20;96.20
49731;DHT22;35622;52.008;5.426;2024-01-30T08:16:01;12.30;96.30
49731;DHT22;35622;52.008;5.426;2024-01-30T08:18:27;12.30;96.40
49731;DHT22;35622;52.008;5.426;2024-01-30T08:20:53;12.30;96.40
49731;DHT22;35622;52.008;5.426;2024-01-30T08:23:18;12.30;96.60
49731;DHT22;35622;52.008;5.426;2024-01-30T08:25:44;12.30;96.70
49731;DHT22;35622;52.008;5.426;2024-01-30T08:28:10;12.30;97.00
49731;DHT22;35622;52.008;5.426;2024-01-30T08:30:35;12.40;97.20
49731;DHT22;35622;52.008;5.426;2024-01-30T08:33:01;12.50;97.30
49731;DHT22;35622;52.008;5.426;2024-01-30T08:35:27;12.50;97.40
49731;DHT22;35622;52.008;5.426;2024-01-30T08:37:52;12.60;97.40
49731;DHT22;35622;52.008;5.426;2024-01-30T08:40:19;12.70;97.40
49731;DHT22;35622;52.008;5.426;2024-01-30T08:42:45;12.80;97.50
49731;DHT22;35622;52.008;5.426;2024-01-30T08:45:11;12.90;97.60
49731;DHT22;35622;52.008;5.426;2024-01-30T08:47:36;13.00;97.60
49731;DHT22;35622;52.008;5.426;2024-01-30T08:50:02;13.00;97.60
49731;DHT22;35622;52.008;5.426;2024-01-30T08:52:28;13.20;97.70
49731;DHT22;35622;52.008;5.426;2024-01-30T08:54:54;13.30;97.70
49731;DHT22;35622;52.008;5.426;2024-01-30T08:57:19;13.30;98.10
49731;DHT22;35622;52.008;5.426;2024-01-30T08:59:45;13.40;97.70
49731;DHT22;35622;52.008;5.426;2024-01-30T09:02:12;13.50;97.70
49731;DHT22;35622;52.008;5.426;2024-01-30T09:04:39;13.50;97.60
49731;DHT22;35622;52.008;5.426;2024-01-30T09:07:04;13.50;97.70
49731;DHT22;35622;52.008;5.426;2024-01-30T09:09:34;13.60;97.70
49731;DHT22;35622;52.008;5.426;2024-01-30T09:11:59;13.60;97.90
49731;DHT22;35622;52.008;5.426;2024-01-30T09:14:29;13.60;97.80
49731;DHT22;35622;52.008;5.426;2024-01-30T09:16:56;13.70;97.80
49731;DHT22;35622;52.008;5.426;2024-01-30T09:19:21;13.70;98.30
49731;DHT22;35622;52.008;5.426;2024-01-30T09:21:47;13.80;97.80
49731;DHT22;35622;52.008;5.426;2024-01-30T09:24:12;13.70;97.80
49731;DHT22;35622;52.008;5.426;2024-01-30T09:26:38;13.80;98.20
49731;DHT22;35622;52.008;5.426;2024-01-30T09:29:04;13.80;98.40
49731;DHT22;35622;52.008;5.426;2024-01-30T09:31:29;13.80;98.60
49731;DHT22;35622;52.008;5.426;2024-01-30T09:33:55;13.50;99.20
49731;DHT22;35622;52.008;5.426;2024-01-30T09:36:20;13.50;99.30
49731;DHT22;35622;52.008;5.426;2024-01-30T09:38:46;13.30;99.90
49731;DHT22;35622;52.008;5.426;2024-01-30T09:41:12;13.50;99.90
49731;DHT22;35622;52.008;5.426;2024-01-30T09:43:38;13.40;99.90
49731;DHT22;35622;52.008;5.426;2024-01-30T09:46:11;13.60;99.90
49731;DHT22;35622;52.008;5.426;2024-01-30T09:48:39;13.70;99.90
49731;DHT22;35622;52.008;5.426;2024-01-30T09:51:07;13.70;99.80
49731;DHT22;35622;52.008;5.426;2024-01-30T09:53:32;13.70;99.40
49731;DHT22;35622;52.008;5.426;2024-01-30T09:55:58;13.80;99.40
49731;DHT22;35622;52.008;5.426;2024-01-30T09:58:24;13.90;99.30
49731;DHT22;35622;52.008;5.426;2024-01-30T10:00:49;14.00;99.20
49731;DHT22;35622;52.008;5.426;2024-01-30T10:03:15;13.80;98.90
49731;DHT22;35622;52.008;5.426;2024-01-30T10:05:41;13.80;99.20
49731;DHT22;35622;52.008;5.426;2024-01-30T10:08:08;14.00;98.80
49731;DHT22;35622;52.008;5.426;2024-01-30T10:10:34;14.00;98.60
49731;DHT22;35622;52.008;5.426;2024-01-30T10:13:00;14.10;98.30
49731;DHT22;35622;52.008;5.426;2024-01-30T10:15:28;14.10;98.50
49731;DHT22;35622;52.008;5.426;2024-01-30T10:17:53;14.20;97.80
49731;DHT22;35622;52.008;5.426;2024-01-30T10:20:19;14.10;98.00
49731;DHT22;35622;52.008;5.426;2024-01-30T10:22:47;14.30;98.00
49731;DHT22;35622;52.008;5.426;2024-01-30T10:25:13;14.30;97.70
49731;DHT22;35622;52.008;5.426;2024-01-30T10:27:42;14.20;97.90
49731;DHT22;35622;52.008;5.426;2024-01-30T10:30:08;13.90;98.90
49731;DHT22;35622;52.008;5.426;2024-01-30T10:32:33;14.00;98.90
49731;DHT22;35622;52.008;5.426;2024-01-30T10:34:59;14.40;98.50
49731;DHT22;35622;52.008;5.426;2024-01-30T10:37:28;14.50;98.90
49731;DHT22;35622;52.008;5.426;2024-01-30T10:40:02;14.90;98.50
49731;DHT22;35622;52.008;5.426;2024-01-30T10:42:31;14.70;97.20
49731;DHT22;35622;52.008;5.426;2024-01-30T10:45:07;14.80;98.10
49731;DHT22;35622;52.008;5.426;2024-01-30T10:47:52;15.20;98.00
49731;DHT22;35622;52.008;5.426;2024-01-30T10:50:19;15.50;96.60
49731;DHT22;35622;52.008;5.426;2024-01-30T10:52:45;15.40;95.80
49731;DHT22;35622;52.008;5.426;2024-01-30T10:55:12;15.70;95.80
49731;DHT22;35622;52.008;5.426;2024-01-30T10:57:39;15.40;94.80
49731;DHT22;35622;52.008;5.426;2024-01-30T11:00:14;15.40;95.50
49731;DHT22;35622;52.008;5.426;2024-01-30T11:02:45;15.30;95.50
49731;DHT22;35622;52.008;5.426;2024-01-30T11:05:12;15.20;95.20
49731;DHT22;35622;52.008;5.426;2024-01-30T11:07:39;15.30;95.00
49731;DHT22;35622;52.008;5.426;2024-01-30T11:10:06;15.30;95.60
49731;DHT22;35622;52.008;5.426;2024-01-30T11:12:38;15.00;95.40
49731;DHT22;35622;52.008;5.426;2024-01-30T11:15:15;15.00;96.40
49731;DHT22;35622;52.008;5.426;2024-01-30T11:17:53;15.00;95.20
49731;DHT22;35622;52.008;5.426;2024-01-30T11:20:25;14.70;95.90
49731;DHT22;35622;52.008;5.426;2024-01-30T11:22:52;14.80;96.90
49731;DHT22;35622;52.008;5.426;2024-01-30T11:25:20;14.70;95.80
49731;DHT22;35622;52.008;5.426;2024-01-30T11:27:47;14.70;95.40
49731;DHT22;35622;52.008;5.426;2024-01-30T11:30:27;14.80;94.00
49731;DHT22;35622;52.008;5.426;2024-01-30T11:35:25;14.80;94.50
49731;DHT22;35622;52.008;5.426;2024-01-30T11:37:51;14.60;93.50
49731;DHT22;35622;52.008;5.426;2024-01-30T11:40:17;14.70;94.60
49731;DHT22;35622;52.008;5.426;2024-01-30T11:42:42;15.00;93.10
49731;DHT22;35622;52.008;5.426;2024-01-30T11:45:09;15.20;93.90
49731;DHT22;35622;52.008;5.426;2024-01-30T11:47:36;15.30;93.00
49731;DHT22;35622;52.008;5.426;2024-01-30T11:50:04;15.10;92.90
49731;DHT22;35622;52.008;5.426;2024-01-30T11:52:33;15.10;93.40
49731;DHT22;35622;52.008;5.426;2024-01-30T11:54:58;15.20;93.30
49731;DHT22;35622;52.008;5.426;2024-01-30T11:57:24;15.30;93.30
49731;DHT22;35622;52.008;5.426;2024-01-30T11:59:51;15.20;92.20
49731;DHT22;35622;52.008;5.426;2024-01-30T12:02:17;14.90;93.00
49731;DHT22;35622;52.008;5.426;2024-01-30T12:04:42;14.60;93.70
49731;DHT22;35622;52.008;5.426;2024-01-30T12:07:08;14.60;93.70
49731;DHT22;35622;52.008;5.426;2024-01-30T12:09:34;14.60;93.30
49731;DHT22;35622;52.008;5.426;2024-01-30T12:11:59;14.60;92.50
49731;DHT22;35622;52.008;5.426;2024-01-30T12:14:26;14.90;92.60
49731;DHT22;35622;52.008;5.426;2024-01-30T12:16:52;14.80;91.40
49731;DHT22;35622;52.008;5.426;2024-01-30T12:19:24;14.80;92.10
49731;DHT22;35622;52.008;5.426;2024-01-30T12:21:57;15.00;92.30
49731;DHT22;35622;52.008;5.426;2024-01-30T12:24:27;14.90;91.30
49731;DHT22;35622;52.008;5.426;2024-01-30T12:26:59;15.10;90.60
49731;DHT22;35622;52.008;5.426;2024-01-30T12:29:25;14.90;91.20
49731;DHT22;35622;52.008;5.426;2024-01-30T12:31:54;14.90;91.90
49731;DHT22;35622;52.008;5.426;2024-01-30T12:34:20;14.90;91.60
49731;DHT22;35622;52.008;5.426;2024-01-30T12:36:47;14.80;91.90
49731;DHT22;35622;52.008;5.426;2024-01-30T12:39:14;14.50;91.10
49731;DHT22;35622;52.008;5.426;2024-01-30T12:41:40;14.10;92.50
49731;DHT22;35622;52.008;5.426;2024-01-30T12:44:06;13.70;92.90
49731;DHT22;35622;52.008;5.426;2024-01-30T12:46:34;13.50;93.80
49731;DHT22;35622;52.008;5.426;2024-01-30T12:49:00;13.70;94.30
49731;DHT22;35622;52.008;5.426;2024-01-30T12:51:25;13.50;94.00
49731;DHT22;35622;52.008;5.426;2024-01-30T12:53:51;13.20;94.40
49731;DHT22;35622;52.008;5.426;2024-01-30T12:56:17;13.30;94.50
49731;DHT22;35622;52.008;5.426;2024-01-30T12:58:42;13.20;94.40
49731;DHT22;35622;52.008;5.426;2024-01-30T13:01:09;13.20;94.60
49731;DHT22;35622;52.008;5.426;2024-01-30T13:03:34;13.30;94.80
49731;DHT22;35622;52.008;5.426;2024-01-30T13:06:00;13.40;94.50
49731;DHT22;35622;52.008;5.426;2024-01-30T13:08:26;13.40;93.90
49731;DHT22;35622;52.008;5.426;2024-01-30T13:10:51;13.20;93.80
49731;DHT22;35622;52.008;5.426;2024-01-30T13:13:17;13.10;93.40
49731;DHT22;35622;52.008;5.426;2024-01-30T13:15:43;12.80;94.20
49731;DHT22;35622;52.008;5.426;2024-01-30T13:18:09;12.70;95.10
49731;DHT22;35622;52.008;5.426;2024-01-30T13:20:35;12.60;94.50
49731;DHT22;35622;52.008;5.426;2024-01-30T13:23:01;12.60;95.10
49731;DHT22;35622;52.008;5.426;2024-01-30T13:25:26;12.80;94.80
49731;DHT22;35622;52.008;5.426;2024-01-30T13:27:52;12.70;95.80
49731;DHT22;35622;52.008;5.426;2024-01-30T13:30:18;12.90;95.00
49731;DHT22;35622;52.008;5.426;2024-01-30T13:32:43;13.10;94.90
49731;DHT22;35622;52.008;5.426;2024-01-30T13:35:10;13.20;94.10
49731;DHT22;35622;52.008;5.426;2024-01-30T13:37:36;13.00;94.40
49731;DHT22;35622;52.008;5.426;2024-01-30T13:40:04;13.00;95.10
49731;DHT22;35622;52.008;5.426;2024-01-30T13:42:32;12.90;94.60
49731;DHT22;35622;52.008;5.426;2024-01-30T13:44:58;12.80;95.10
49731;DHT22;35622;52.008;5.426;2024-01-30T13:47:23;12.90;95.50
49731;DHT22;35622;52.008;5.426;2024-01-30T13:49:49;13.00;95.10
49731;DHT22;35622;52.008;5.426;2024-01-30T13:52:14;13.00;95.00
49731;DHT22;35622;52.008;5.426;2024-01-30T13:54:40;13.00;95.30
49731;DHT22;35622;52.008;5.426;2024-01-30T13:57:06;13.30;94.40
49731;DHT22;35622;52.008;5.426;2024-01-30T13:59:33;13.40;94.80
49731;DHT22;35622;52.008;5.426;2024-01-30T14:01:58;13.50;94.50
49731;DHT22;35622;52.008;5.426;2024-01-30T14:04:24;13.20;94.60
49731;DHT22;35622;52.008;5.426;2024-01-30T14:06:50;13.10;95.50
49731;DHT22;35622;52.008;5.426;2024-01-30T14:09:15;13.00;96.20
49731;DHT22;35622;52.008;5.426;2024-01-30T14:11:41;12.90;95.60
49731;DHT22;35622;52.008;5.426;2024-01-30T14:14:08;12.80;95.80
49731;DHT22;35622;52.008;5.426;2024-01-30T14:16:34;12.90;96.00
49731;DHT22;35622;52.008;5.426;2024-01-30T14:18:59;12.90;95.60
49731;DHT22;35622;52.008;5.426;2024-01-30T14:21:25;12.60;96.00
49731;DHT22;35622;52.008;5.426;2024-01-30T14:23:51;12.60;96.10
49731;DHT22;35622;52.008;5.426;2024-01-30T14:26:16;12.60;96.00
49731;DHT22;35622;52.008;5.426;2024-01-30T14:28:42;12.60;95.90
49731;DHT22;35622;52.008;5.426;2024-01-30T14:31:09;12.50;96.10
49731;DHT22;35622;52.008;5.426;2024-01-30T14:33:34;12.50;96.30
49731;DHT22;35622;52.008;5.426;2024-01-30T14:36:00;12.20;96.40
49731;DHT22;35622;52.008;5.426;2024-01-30T14:38:25;12.50;96.20
49731;DHT22;35622;52.008;5.426;2024-01-30T14:40:51;12.60;96.20
49731;DHT22;35622;52.008;5.426;2024-01-30T14:43:17;12.60;95.80
49731;DHT22;35622;52.008;5.426;2024-01-30T14:45:42;12.70;95.60
49731;DHT22;35622;52.008;5.426;2024-01-30T14:48:11;12.70;95.70
49731;DHT22;35622;52.008;5.426;2024-01-30T14:50:36;12.80;96.20
49731;DHT22;35622;52.008;5.426;2024-01-30T14:53:02;12.70;95.90
49731;DHT22;35622;52.008;5.426;2024-01-30T14:55:28;12.90;95.40
49731;DHT22;35622;52.008;5.426;2024-01-30T14:57:53;12.80;95.60
49731;DHT22;35622;52.008;5.426;2024-01-30T15:00:19;12.60;95.80
49731;DHT22;35622;52.008;5.426;2024-01-30T15:02:45;12.50;96.20
49731;DHT22;35622;52.008;5.426;2024-01-30T15:05:12;12.40;96.50
49731;DHT22;35622;52.008;5.426;2024-01-30T15:07:38;12.30;96.80
49731;DHT22;35622;52.008;5.426;2024-01-30T15:10:04;12.20;97.20
49731;DHT22;35622;52.008;5.426;2024-01-30T15:12:29;12.50;97.10
49731;DHT22;35622;52.008;5.426;2024-01-30T15:14:55;12.50;96.80
49731;DHT22;35622;52.008;5.426;2024-01-30T15:17:20;12.60;96.60
49731;DHT22;35622;52.008;5.426;2024-01-30T15:19:49;12.40;96.80
49731;DHT22;35622;52.008;5.426;2024-01-30T15:22:16;12.40;97.00
49731;DHT22;35622;52.008;5.426;2024-01-30T15:24:41;12.50;97.20
49731;DHT22;35622;52.008;5.426;2024-01-30T15:27:07;12.40;97.00
49731;DHT22;35622;52.008;5.426;2024-01-30T15:29:33;12.40;97.20